Time;durP1;ratioP1;P1;durP2;ratioP2;P2;SDS_P1;SDS_P2;PMS_P1;PMS_P2;Temp;Humidity;BMP_temperature;BMP_pressure;BME280_temperature;BME280_humidity;BME280_pressure;Samples;Min_cycle;Max_cycle;Signal;HPM_P1;HPM_P2
2021/10/06 06:52:06;;;;;;;1.70;1.20;;;;;;;;;;7192079;19;3404027;-15
2021/10/06 06:54:35;;;;;;;1.55;1.20;;;;;;;;;;7365012;19;153510;-16
2021/10/06 06:57:03;;;;;;;1.50;1.38;;;;;;;;;;7365103;19;161859;-15
2021/10/06 06:59:32;;;;;;;1.45;1.17;;;;;;;;;;7364359;19;162417;-17
2021/10/06 07:02:00;;;;;;;1.98;1.48;;;;;;;;;;7365450;19;154226;-15
2021/10/06 07:04:28;;;;;;;1.70;1.27;;;;;;;;;;7365422;19;153539;-12
2021/10/06 07:06:58;;;;;;;2.28;1.48;;;;;;;;;;7363645;19;161900;-16
2021/10/06 07:09:25;;;;;;;1.63;1.35;;;;;;;;;;7364734;19;162519;-16
2021/10/06 07:11:53;;;;;;;2.00;1.40;;;;;;;;;;7365118;19;154455;-15
2021/10/06 07:14:22;;;;;;;1.48;1.30;;;;;;;;;;7364083;19;153546;-16
2021/10/06 07:16:50;;;;;;;1.90;1.25;;;;;;;;;;7364529;19;161900;-13
2021/10/06 07:19:17;;;;;;;1.40;1.30;;;;;;;;;;7364169;19;162945;-14
2021/10/06 07:21:45;;;;;;;2.03;1.40;;;;;;;;;;7361239;19;153930;-16
2021/10/06 07:24:15;;;;;;;1.20;1.10;;;;;;;;;;7364579;19;153631;-17
2021/10/06 07:26:46;;;;;;;1.55;1.02;;;;;;;;;;7363076;19;162105;-16
2021/10/06 07:29:14;;;;;;;1.25;1.13;;;;;;;;;;7364044;19;162620;-15
2021/10/06 07:31:42;;;;;;;1.33;1.23;;;;;;;;;;7364308;19;154167;-18
2021/10/06 07:34:10;;;;;;;1.92;1.25;;;;;;;;;;7364225;19;153593;-15
2021/10/06 07:36:38;;;;;;;1.30;1.20;;;;;;;;;;7363780;19;161957;-14
2021/10/06 07:39:06;;;;;;;1.33;1.10;;;;;;;;;;7363754;19;162549;-15
2021/10/06 07:41:34;;;;;;;0.95;0.88;;;;;;;;;;7362168;19;154180;-16
2021/10/06 07:44:03;;;;;;;1.20;1.10;;;;;;;;;;7363931;19;153466;-18
2021/10/06 07:46:31;;;;;;;1.30;1.20;;;;;;;;;;7363665;19;161865;-14
2021/10/06 07:48:59;;;;;;;1.65;1.30;;;;;;;;;;7363370;19;162715;-16
2021/10/06 07:51:27;;;;;;;1.30;1.20;;;;;;;;;;7352791;19;153948;-16
2021/10/06 07:53:57;;;;;;;1.10;1.00;;;;;;;;;;7334925;19;153826;-17
2021/10/06 07:56:25;;;;;;;1.45;1.20;;;;;;;;;;7334450;19;161832;-17
2021/10/06 07:58:53;;;;;;;1.10;1.00;;;;;;;;;;7334365;19;162440;-17
2021/10/06 08:01:21;;;;;;;1.90;1.15;;;;;;;;;;7331883;19;154147;-15
2021/10/06 08:03:52;;;;;;;1.23;1.00;;;;;;;;;;7334729;19;153507;-17
2021/10/06 08:06:20;;;;;;;1.08;1.00;;;;;;;;;;7333196;19;162199;-17
2021/10/06 08:08:48;;;;;;;1.15;1.05;;;;;;;;;;7334089;19;162709;-15
2021/10/06 08:11:16;;;;;;;1.02;0.90;;;;;;;;;;7335259;19;153919;-17
2021/10/06 08:13:44;;;;;;;1.20;1.10;;;;;;;;;;7334250;19;153715;-16
2021/10/06 08:16:12;;;;;;;1.38;1.08;;;;;;;;;;7332660;19;162008;-14
2021/10/06 08:18:40;;;;;;;0.90;0.90;;;;;;;;;;7333909;19;162489;-15
2021/10/06 08:21:08;;;;;;;0.93;0.85;;;;;;;;;;7332597;19;153965;-15
2021/10/06 08:23:36;;;;;;;1.10;1.00;;;;;;;;;;7332977;19;153579;-15
2021/10/06 08:26:04;;;;;;;1.27;1.17;;;;;;;;;;7332463;19;161825;-16
2021/10/06 08:28:32;;;;;;;1.20;1.10;;;;;;;;;;7333398;19;162509;-13
2021/10/06 08:31:00;;;;;;;1.17;1.08;;;;;;;;;;7334016;19;154003;-16
2021/10/06 08:33:29;;;;;;;1.17;1.08;;;;;;;;;;7333711;19;153501;-13
2021/10/06 08:35:56;;;;;;;0.82;0.82;;;;;;;;;;7333287;19;161840;-13
2021/10/06 08:38:24;;;;;;;0.90;0.90;;;;;;;;;;7333036;19;162341;-15
2021/10/06 08:40:52;;;;;;;1.10;1.00;;;;;;;;;;7331353;19;153961;-16
2021/10/06 08:43:20;;;;;;;1.08;0.90;;;;;;;;;;7332472;19;153533;-16
2021/10/06 08:45:48;;;;;;;1.00;1.00;;;;;;;;;;7333294;19;161890;-17
2021/10/06 08:48:16;;;;;;;1.27;1.20;;;;;;;;;;7333021;19;162440;-16
2021/10/06 08:50:44;;;;;;;0.90;0.90;;;;;;;;;;7332268;19;153949;-13
2021/10/06 08:53:12;;;;;;;0.90;0.90;;;;;;;;;;7332923;19;153624;-22
2021/10/06 08:55:40;;;;;;;1.17;1.08;;;;;;;;;;7332696;19;161813;-14
2021/10/06 08:58:08;;;;;;;0.95;0.90;;;;;;;;;;7332703;19;162644;-16
2021/10/06 09:00:51;;;;;;;1.30;0.95;;;;;;;;;;7332161;19;153943;-15
2021/10/06 09:03:31;;;;;;;0.80;0.80;;;;;;;;;;7328951;19;153528;-14
2021/10/06 09:06:14;;;;;;;0.88;0.88;;;;;;;;;;7331896;19;161831;-14
2021/10/06 09:08:46;;;;;;;1.20;1.10;;;;;;;;;;7331875;19;162529;-16
2021/10/06 09:11:17;;;;;;;1.42;0.90;;;;;;;;;;7332411;19;154347;-16
2021/10/06 09:13:47;;;;;;;0.70;0.70;;;;;;;;;;7332064;19;153660;-12
2021/10/06 09:16:17;;;;;;;1.20;1.10;;;;;;;;;;7331554;19;161902;-14
2021/10/06 09:18:45;;;;;;;0.80;0.80;;;;;;;;;;7331722;19;162479;-14
2021/10/06 09:21:13;;;;;;;1.33;1.05;;;;;;;;;;7329620;19;154002;-16
2021/10/06 09:23:42;;;;;;;0.80;0.80;;;;;;;;;;7331939;19;153686;-15
2021/10/06 09:26:12;;;;;;;1.00;0.90;;;;;;;;;;7331395;19;161926;-15
2021/10/06 09:28:43;;;;;;;0.80;0.80;;;;;;;;;;7331214;19;162459;-15
2021/10/06 09:31:17;;;;;;;0.77;0.77;;;;;;;;;;7332697;19;154730;-14
2021/10/06 09:33:57;;;;;;;1.05;1.00;;;;;;;;;;7330076;19;153482;-15
2021/10/06 09:36:34;;;;;;;1.92;0.93;;;;;;;;;;7330907;19;161825;-15
2021/10/06 09:39:10;;;;;;;1.17;1.05;;;;;;;;;;7330954;19;162641;-15
2021/10/06 09:41:39;;;;;;;0.82;0.82;;;;;;;;;;7329435;19;153985;-12
2021/10/06 09:44:16;;;;;;;0.90;0.90;;;;;;;;;;7330030;19;153631;-14
2021/10/06 09:47:00;;;;;;;0.82;0.82;;;;;;;;;;7331577;19;162111;-15
2021/10/06 09:49:36;;;;;;;0.85;0.73;;;;;;;;;;7329460;19;162563;-14
2021/10/06 09:52:13;;;;;;;0.90;0.90;;;;;;;;;;7330859;19;153995;-12
2021/10/06 09:54:51;;;;;;;1.17;0.95;;;;;;;;;;7326660;19;154107;-15
2021/10/06 09:57:32;;;;;;;0.80;0.80;;;;;;;;;;7330486;19;161657;-13
2021/10/06 10:00:08;;;;;;;0.70;0.70;;;;;;;;;;7329925;19;162607;-16
2021/10/06 10:02:40;;;;;;;1.02;0.70;;;;;;;;;;7327913;19;154141;-13
2021/10/06 10:05:09;;;;;;;0.95;0.93;;;;;;;;;;7330634;19;153816;-16
2021/10/06 10:07:38;;;;;;;0.93;0.90;;;;;;;;;;7329989;19;161938;-15
2021/10/06 10:10:09;;;;;;;0.73;0.73;;;;;;;;;;7330255;19;162514;-13
2021/10/06 10:12:39;;;;;;;0.90;0.82;;;;;;;;;;7329499;19;154183;-15
2021/10/06 10:15:09;;;;;;;0.80;0.80;;;;;;;;;;7328452;19;153592;-16
2021/10/06 10:17:37;;;;;;;0.88;0.88;;;;;;;;;;7330072;19;161837;-14
2021/10/06 10:20:12;;;;;;;0.70;0.70;;;;;;;;;;7329797;19;162482;-14
2021/10/06 10:22:46;;;;;;;1.00;0.90;;;;;;;;;;7327608;19;154020;-14
2021/10/06 10:25:18;;;;;;;1.52;0.80;;;;;;;;;;7329718;19;153526;-13
2021/10/06 10:28:14;;;;;;;2.20;0.98;;;;;;;;;;7329683;19;161864;-14
2021/10/06 10:30:54;;;;;;;0.68;0.68;;;;;;;;;;7328402;19;162662;-14
2021/10/06 10:33:58;;;;;;;0.95;0.75;;;;;;;;;;7328742;19;154560;-16
2021/10/06 10:36:40;;;;;;;1.05;0.80;;;;;;;;;;7325525;19;153826;-15
2021/10/06 10:39:33;;;;;;;1.10;0.90;;;;;;;;;;7326904;19;161712;-15
2021/10/06 10:42:01;;;;;;;1.30;0.65;;;;;;;;;;7326708;19;162569;-16
2021/10/06 10:44:34;;;;;;;1.42;0.90;;;;;;;;;;7328508;19;153970;-12
2021/10/06 10:47:03;;;;;;;0.73;0.73;;;;;;;;;;7328398;19;153634;-14
2021/10/06 10:49:47;;;;;;;0.90;0.90;;;;;;;;;;7326803;19;161915;-15
2021/10/06 10:52:16;;;;;;;1.90;0.90;;;;;;;;;;7323946;19;162604;-14
2021/10/06 10:54:47;;;;;;;1.27;1.03;;;;;;;;;;7326457;19;154111;-14
2021/10/06 10:57:21;;;;;;;0.70;0.70;;;;;;;;;;7333624;19;153923;-13
2021/10/06 10:59:51;;;;;;;0.70;0.70;;;;;;;;;;7324296;19;162021;-16
2021/10/06 11:02:29;;;;;;;0.80;0.80;;;;;;;;;;7326364;19;162500;-14
2021/10/06 11:05:04;;;;;;;0.60;0.60;;;;;;;;;;7329099;19;154118;-13
2021/10/06 11:07:32;;;;;;;0.73;0.70;;;;;;;;;;7327240;19;153700;-14
2021/10/06 11:10:02;;;;;;;1.10;0.93;;;;;;;;;;7326187;19;161860;-16
2021/10/06 11:12:32;;;;;;;1.00;0.90;;;;;;;;;;7327628;19;162328;-14
2021/10/06 11:15:12;;;;;;;0.85;0.70;;;;;;;;;;7327343;19;154217;-14
2021/10/06 11:18:08;;;;;;;0.90;0.75;;;;;;;;;;7327348;19;153616;-13
2021/10/06 11:21:01;;;;;;;1.88;1.00;;;;;;;;;;7327860;19;161905;-13
2021/10/06 11:23:31;;;;;;;1.13;0.80;;;;;;;;;;7330933;19;162448;-13
2021/10/06 11:26:15;;;;;;;2.20;1.02;;;;;;;;;;7327185;19;153853;-14
2021/10/06 11:28:46;;;;;;;1.10;0.88;;;;;;;;;;7333847;19;153702;-13
2021/10/06 11:31:16;;;;;;;1.77;0.85;;;;;;;;;;7333717;19;161963;-13
2021/10/06 11:33:44;;;;;;;1.50;0.82;;;;;;;;;;7332240;19;162547;-14
2021/10/06 11:36:12;;;;;;;0.68;0.68;;;;;;;;;;7332673;19;153974;-16
2021/10/06 11:38:43;;;;;;;1.20;0.98;;;;;;;;;;7333830;19;153727;-16
2021/10/06 11:41:11;;;;;;;1.83;0.82;;;;;;;;;;7333254;19;161826;-20
2021/10/06 11:43:48;;;;;;;2.05;0.80;;;;;;;;;;7332001;19;162643;-23
2021/10/06 11:46:20;;;;;;;1.67;0.90;;;;;;;;;;7333386;19;154077;-12
2021/10/06 11:48:49;;;;;;;0.98;0.88;;;;;;;;;;7333706;19;153599;-20
2021/10/06 11:51:18;;;;;;;1.40;0.82;;;;;;;;;;7331578;19;162254;-13
2021/10/06 11:53:48;;;;;;;1.65;0.80;;;;;;;;;;7333052;19;162360;-14
2021/10/06 11:56:27;;;;;;;1.73;0.90;;;;;;;;;;7333511;19;153928;-12
2021/10/06 11:59:04;;;;;;;1.20;1.10;;;;;;;;;;7331805;19;153743;-14
2021/10/06 12:01:33;;;;;;;2.53;1.00;;;;;;;;;;7332388;19;161846;-12
2021/10/06 12:04:10;;;;;;;1.45;1.02;;;;;;;;;;7332626;19;162496;-14
2021/10/06 12:06:45;;;;;;;1.65;0.90;;;;;;;;;;7332763;19;153863;-15
2021/10/06 12:09:14;;;;;;;1.88;1.00;;;;;;;;;;7331402;19;153826;-13
2021/10/06 12:11:45;;;;;;;1.52;0.90;;;;;;;;;;7331077;19;161986;-13
2021/10/06 12:14:17;;;;;;;2.03;0.90;;;;;;;;;;7332287;19;162815;-13
2021/10/06 12:16:45;;;;;;;2.20;0.90;;;;;;;;;;7332606;19;154078;-14
2021/10/06 12:19:22;;;;;;;2.58;1.13;;;;;;;;;;7332615;19;153628;-15
2021/10/06 12:21:50;;;;;;;1.20;0.90;;;;;;;;;;7331652;19;161980;-13
2021/10/06 12:24:25;;;;;;;2.70;1.20;;;;;;;;;;7332389;19;162493;-13
2021/10/06 12:26:54;;;;;;;2.15;1.15;;;;;;;;;;7332673;19;153960;-12
2021/10/06 12:29:28;;;;;;;1.65;0.90;;;;;;;;;;7332238;19;153563;-14
2021/10/06 12:32:14;;;;;;;2.15;1.20;;;;;;;;;;7331711;19;161921;-15
2021/10/06 12:34:43;;;;;;;1.70;1.08;;;;;;;;;;7331484;19;162606;-14
2021/10/06 12:37:14;;;;;;;1.90;0.90;;;;;;;;;;7331954;19;154044;-13
2021/10/06 12:39:48;;;;;;;5.30;1.05;;;;;;;;;;7331957;19;153721;-16
2021/10/06 12:42:16;;;;;;;0.98;0.90;;;;;;;;;;7331236;19;162061;-13
2021/10/06 12:44:47;;;;;;;2.67;1.20;;;;;;;;;;7330717;19;162639;-13
2021/10/06 12:47:16;;;;;;;3.20;1.10;;;;;;;;;;7332403;19;154071;-13
2021/10/06 12:49:47;;;;;;;1.50;0.90;;;;;;;;;;7332258;19;153988;-12
2021/10/06 12:52:26;;;;;;;2.05;0.90;;;;;;;;;;7329491;19;162052;-13
2021/10/06 12:55:09;;;;;;;1.33;0.90;;;;;;;;;;7335055;19;162845;-13
2021/10/06 12:57:39;;;;;;;1.17;0.93;;;;;;;;;;7332270;19;155571;-13
2021/10/06 13:00:25;;;;;;;1.52;0.95;;;;;;;;;;7332012;19;153521;-14
2021/10/06 13:02:53;;;;;;;1.85;0.93;;;;;;;;;;7330193;19;162278;-15
2021/10/06 13:05:22;;;;;;;2.88;0.88;;;;;;;;;;7331927;19;162489;-13
2021/10/06 13:07:55;;;;;;;1.50;1.02;;;;;;;;;;7334576;19;154783;-16
2021/10/06 13:10:23;;;;;;;3.17;1.05;;;;;;;;;;7331230;19;153509;-14
2021/10/06 13:12:53;;;;;;;1.90;1.02;;;;;;;;;;7334088;19;162374;-14
2021/10/06 13:15:22;;;;;;;1.85;1.00;;;;;;;;;;7331814;19;162539;-13
2021/10/06 13:17:50;;;;;;;1.38;0.95;;;;;;;;;;7331537;19;154138;-14
2021/10/06 13:20:18;;;;;;;1.08;0.90;;;;;;;;;;7330898;19;153555;-13
2021/10/06 13:22:45;;;;;;;0.82;0.60;;;;;;;;;;7327066;19;161887;-16
2021/10/06 13:25:13;;;;;;;3.03;1.00;;;;;;;;;;7331187;19;162442;-14
2021/10/06 13:27:41;;;;;;;1.33;0.80;;;;;;;;;;7331283;19;154390;-15
2021/10/06 13:30:10;;;;;;;2.17;0.98;;;;;;;;;;7330076;19;153511;-13
2021/10/06 13:32:39;;;;;;;1.00;0.90;;;;;;;;;;7331557;19;161871;-14
2021/10/06 13:35:07;;;;;;;1.85;1.08;;;;;;;;;;7331665;19;162609;-16
2021/10/06 13:37:35;;;;;;;3.58;1.02;;;;;;;;;;7331430;19;154231;-15
2021/10/06 13:40:04;;;;;;;1.00;0.80;;;;;;;;;;7329761;19;153736;-14
2021/10/06 13:42:31;;;;;;;1.75;1.02;;;;;;;;;;7329000;19;161993;-15
2021/10/06 13:44:59;;;;;;;2.72;1.20;;;;;;;;;;7330098;19;162485;-13
2021/10/06 13:47:27;;;;;;;3.17;0.70;;;;;;;;;;7329666;19;153709;-16
2021/10/06 13:49:55;;;;;;;2.38;0.90;;;;;;;;;;7329558;19;153573;-15
2021/10/06 13:52:29;;;;;;;1.02;0.80;;;;;;;;;;7328317;19;161887;-12
2021/10/06 13:54:57;;;;;;;0.90;0.80;;;;;;;;;;7331156;19;162425;-13
2021/10/06 13:57:25;;;;;;;1.48;0.85;;;;;;;;;;7331432;19;154306;-15
2021/10/06 13:59:54;;;;;;;1.27;0.60;;;;;;;;;;7331333;19;153513;-17
2021/10/06 14:02:22;;;;;;;0.95;0.80;;;;;;;;;;7329122;19;161957;-13
2021/10/06 14:04:49;;;;;;;0.52;0.52;;;;;;;;;;7330910;19;162504;-15
2021/10/06 14:07:18;;;;;;;2.40;0.90;;;;;;;;;;7331216;19;153966;-15
2021/10/06 14:09:46;;;;;;;0.80;0.80;;;;;;;;;;7329638;19;153787;-14
2021/10/06 14:12:14;;;;;;;0.70;0.70;;;;;;;;;;7330590;19;161991;-15
2021/10/06 14:14:41;;;;;;;0.70;0.70;;;;;;;;;;7330544;19;162586;-16
2021/10/06 14:17:10;;;;;;;0.90;0.75;;;;;;;;;;7330952;19;154141;-14
2021/10/06 14:19:38;;;;;;;0.98;0.88;;;;;;;;;;7330786;19;153320;-16
2021/10/06 14:22:08;;;;;;;1.67;0.80;;;;;;;;;;7329402;19;162096;-14
2021/10/06 14:24:37;;;;;;;0.80;0.80;;;;;;;;;;7330223;19;162359;-15
2021/10/06 14:27:06;;;;;;;0.68;0.60;;;;;;;;;;7330628;19;153996;-14
2021/10/06 14:29:34;;;;;;;1.15;0.80;;;;;;;;;;7330458;19;153580;-16
2021/10/06 14:32:05;;;;;;;0.82;0.73;;;;;;;;;;7329964;19;161890;-14
2021/10/06 14:34:33;;;;;;;0.77;0.70;;;;;;;;;;7329672;19;162507;-17
2021/10/06 14:37:02;;;;;;;1.17;0.80;;;;;;;;;;7330164;19;154030;-16
2021/10/06 14:39:30;;;;;;;1.02;0.75;;;;;;;;;;7329976;19;153518;-20
2021/10/06 14:41:58;;;;;;;0.70;0.70;;;;;;;;;;7329694;19;161916;-16
2021/10/06 14:44:27;;;;;;;0.95;0.93;;;;;;;;;;7326805;19;162553;-13
2021/10/06 14:46:54;;;;;;;1.27;0.85;;;;;;;;;;7329967;19;153973;-13
2021/10/06 14:49:26;;;;;;;0.50;0.50;;;;;;;;;;7331590;19;153571;-12
2021/10/06 14:51:55;;;;;;;;;;;;;;;;;;7332143;19;161821;-16
2021/10/06 14:54:23;;;;;;;1.63;1.10;;;;;;;;;;7329753;19;163402;-14
2021/10/06 14:56:51;;;;;;;1.60;0.85;;;;;;;;;;7333191;19;153942;-22
2021/10/06 14:59:20;;;;;;;2.88;1.27;;;;;;;;;;7329349;19;153582;-14
2021/10/06 15:01:48;;;;;;;1.15;1.02;;;;;;;;;;7330189;19;161846;-15
2021/10/06 15:04:16;;;;;;;1.83;1.05;;;;;;;;;;7333685;19;162426;-15
2021/10/06 15:06:45;;;;;;;2.65;1.20;;;;;;;;;;7335959;19;154314;-15
2021/10/06 15:09:16;;;;;;;1.67;0.90;;;;;;;;;;7335513;19;153773;-13
2021/10/06 15:11:44;;;;;;;2.17;1.15;;;;;;;;;;7334021;19;161856;-15
2021/10/06 15:14:12;;;;;;;2.10;1.08;;;;;;;;;;7336497;19;162606;-20
2021/10/06 15:16:40;;;;;;;1.63;1.00;;;;;;;;;;7336612;19;154122;-16
2021/10/06 15:19:08;;;;;;;1.65;1.08;;;;;;;;;;7336640;19;153548;-15
2021/10/06 15:21:36;;;;;;;1.33;1.00;;;;;;;;;;7338206;19;161822;-16
2021/10/06 15:24:05;;;;;;;0.90;0.80;;;;;;;;;;7336851;19;162718;-15
2021/10/06 15:26:34;;;;;;;1.58;1.20;;;;;;;;;;7338518;19;153952;-14
2021/10/06 15:29:02;;;;;;;1.80;1.10;;;;;;;;;;7337972;19;153526;-15
2021/10/06 15:31:30;;;;;;;1.95;1.10;;;;;;;;;;7336603;19;162089;-16
2021/10/06 15:33:58;;;;;;;1.58;0.93;;;;;;;;;;7334842;19;162734;-15
2021/10/06 15:36:26;;;;;;;1.95;0.95;;;;;;;;;;7336697;19;154653;-17
2021/10/06 15:38:54;;;;;;;1.45;1.05;;;;;;;;;;7337837;19;153706;-16
2021/10/06 15:41:22;;;;;;;3.00;1.33;;;;;;;;;;7337472;19;161887;-15
2021/10/06 15:43:50;;;;;;;1.00;0.90;;;;;;;;;;7334777;19;162524;-17
2021/10/06 15:46:22;;;;;;;1.83;1.23;;;;;;;;;;7338200;19;154219;-17
2021/10/06 15:48:50;;;;;;;2.08;1.27;;;;;;;;;;7337439;19;153764;-12
2021/10/06 15:51:19;;;;;;;2.10;1.08;;;;;;;;;;7336244;19;161791;-16
2021/10/06 15:53:47;;;;;;;1.45;0.93;;;;;;;;;;7336982;19;162807;-14
2021/10/06 15:56:15;;;;;;;1.65;1.10;;;;;;;;;;7337642;19;153822;-15
2021/10/06 15:58:43;;;;;;;2.63;1.38;;;;;;;;;;7336192;19;153642;-16
2021/10/06 16:01:11;;;;;;;1.23;1.10;;;;;;;;;;7337245;19;162253;-17
2021/10/06 16:03:40;;;;;;;3.13;1.40;;;;;;;;;;7336082;19;162583;-15
2021/10/06 16:06:08;;;;;;;2.88;1.30;;;;;;;;;;7337181;19;154198;-16
2021/10/06 16:08:36;;;;;;;1.38;1.17;;;;;;;;;;7335372;19;153618;-15
2021/10/06 16:11:04;;;;;;;2.40;0.90;;;;;;;;;;7336121;19;161843;-14
2021/10/06 16:13:32;;;;;;;2.10;0.88;;;;;;;;;;7332461;19;162662;-17
2021/10/06 16:16:00;;;;;;;1.60;1.30;;;;;;;;;;7333991;19;154286;-15
2021/10/06 16:18:28;;;;;;;2.30;1.15;;;;;;;;;;7334024;19;153766;-15
2021/10/06 16:20:56;;;;;;;1.23;1.02;;;;;;;;;;7332681;19;162503;-15
2021/10/06 16:23:27;;;;;;;1.33;0.93;;;;;;;;;;7335960;19;162620;-14
2021/10/06 16:25:54;;;;;;;1.73;1.08;;;;;;;;;;7335173;19;153975;-16
2021/10/06 16:28:22;;;;;;;1.25;0.90;;;;;;;;;;7336015;19;153531;-13
2021/10/06 16:30:50;;;;;;;1.60;1.13;;;;;;;;;;7336096;19;162502;-15
2021/10/06 16:33:18;;;;;;;1.10;0.90;;;;;;;;;;7336922;19;162387;-12
2021/10/06 16:35:46;;;;;;;1.00;0.90;;;;;;;;;;7336631;19;153823;-12
2021/10/06 16:38:14;;;;;;;2.10;1.30;;;;;;;;;;7336421;19;153270;-17
2021/10/06 16:40:42;;;;;;;1.05;1.00;;;;;;;;;;7335922;19;162181;-14
2021/10/06 16:43:10;;;;;;;1.27;1.00;;;;;;;;;;7334772;19;162725;-14
2021/10/06 16:45:37;;;;;;;1.45;1.17;;;;;;;;;;7332757;19;154171;-13
2021/10/06 16:48:05;;;;;;;1.10;1.00;;;;;;;;;;7332623;19;153590;-14
2021/10/06 16:50:33;;;;;;;0.95;0.80;;;;;;;;;;7331840;19;161770;-13
2021/10/06 16:53:01;;;;;;;1.42;1.00;;;;;;;;;;7330995;19;162517;-13
2021/10/06 16:55:29;;;;;;;0.98;0.90;;;;;;;;;;7331553;19;154006;-14
2021/10/06 16:57:57;;;;;;;2.70;1.10;;;;;;;;;;7332237;19;153508;-15
2021/10/06 17:00:42;;;;;;;1.52;1.10;;;;;;;;;;7333599;19;161927;-12
2021/10/06 17:03:11;;;;;;;1.52;1.10;;;;;;;;;;7335504;19;162411;-13
2021/10/06 17:05:40;;;;;;;2.08;1.20;;;;;;;;;;7335791;19;154090;-12
2021/10/06 17:08:09;;;;;;;0.90;0.90;;;;;;;;;;7332268;19;153856;-14
2021/10/06 17:10:38;;;;;;;1.98;1.30;;;;;;;;;;7332040;19;162048;-13
2021/10/06 17:13:07;;;;;;;1.42;1.02;;;;;;;;;;7331553;19;162446;-13
2021/10/06 17:15:37;;;;;;;1.25;1.10;;;;;;;;;;7334469;19;154425;-14
2021/10/06 17:18:06;;;;;;;1.23;1.10;;;;;;;;;;7334734;19;153709;-16
2021/10/06 17:20:35;;;;;;;1.25;1.00;;;;;;;;;;7334703;19;161811;-13
2021/10/06 17:23:04;;;;;;;1.67;1.40;;;;;;;;;;7331690;19;162471;-16
2021/10/06 17:25:32;;;;;;;1.15;1.05;;;;;;;;;;7326975;19;154012;-13
2021/10/06 17:28:04;;;;;;;0.95;0.90;;;;;;;;;;7331584;19;153436;-13
2021/10/06 17:30:35;;;;;;;1.08;0.98;;;;;;;;;;7331237;19;162106;-13
2021/10/06 17:33:03;;;;;;;0.95;0.95;;;;;;;;;;7330110;19;162540;-15
2021/10/06 17:35:31;;;;;;;1.27;1.15;;;;;;;;;;7331485;19;154075;-14
2021/10/06 17:37:59;;;;;;;1.33;0.90;;;;;;;;;;7331434;19;153946;-13
2021/10/06 17:40:28;;;;;;;1.45;0.93;;;;;;;;;;7331081;19;161933;-13
2021/10/06 17:43:00;;;;;;;1.45;1.00;;;;;;;;;;7330945;19;163283;-15
2021/10/06 17:45:28;;;;;;;1.17;1.05;;;;;;;;;;7328774;19;154118;-12
2021/10/06 17:47:57;;;;;;;1.80;1.08;;;;;;;;;;7331299;19;153965;-16
2021/10/06 17:50:27;;;;;;;1.42;1.20;;;;;;;;;;7330439;19;161811;-12
2021/10/06 17:52:55;;;;;;;1.50;1.20;;;;;;;;;;7330634;19;162504;-13
2021/10/06 17:55:35;;;;;;;1.00;0.90;;;;;;;;;;7331023;19;153956;-16
2021/10/06 17:58:03;;;;;;;1.02;0.93;;;;;;;;;;7329797;19;153670;-17
2021/10/06 18:00:31;;;;;;;1.38;0.90;;;;;;;;;;7330511;19;161879;-15
2021/10/06 18:02:59;;;;;;;0.98;0.90;;;;;;;;;;7330918;19;162508;-14
2021/10/06 18:05:29;;;;;;;1.13;0.90;;;;;;;;;;7328558;19;154043;-14
2021/10/06 18:07:58;;;;;;;1.02;0.82;;;;;;;;;;7331205;19;153458;-15
2021/10/06 18:10:30;;;;;;;1.00;0.90;;;;;;;;;;7330325;19;162131;-13
2021/10/06 18:12:59;;;;;;;0.70;0.70;;;;;;;;;;7329918;19;162444;-16
2021/10/06 18:15:29;;;;;;;0.65;0.65;;;;;;;;;;7330802;19;154207;-13
2021/10/06 18:17:57;;;;;;;1.83;1.08;;;;;;;;;;7330855;19;153534;-14
2021/10/06 18:20:25;;;;;;;0.98;0.98;;;;;;;;;;7330189;19;161791;-16
2021/10/06 18:22:53;;;;;;;0.85;0.80;;;;;;;;;;7330305;19;162449;-16
2021/10/06 18:25:21;;;;;;;1.00;0.88;;;;;;;;;;7328882;19;153998;-14
2021/10/06 18:27:50;;;;;;;1.05;0.80;;;;;;;;;;7330650;19;153504;-16
2021/10/06 18:30:20;;;;;;;0.80;0.80;;;;;;;;;;7330115;19;161810;-15
2021/10/06 18:32:48;;;;;;;0.88;0.80;;;;;;;;;;7330220;19;162480;-14
2021/10/06 18:35:16;;;;;;;0.63;0.63;;;;;;;;;;7329976;19;154039;-13
2021/10/06 18:37:48;;;;;;;0.80;0.80;;;;;;;;;;7330322;19;154073;-14
2021/10/06 18:40:16;;;;;;;0.60;0.60;;;;;;;;;;7329815;19;162088;-13
2021/10/06 18:42:45;;;;;;;0.70;0.70;;;;;;;;;;7329816;19;162992;-16
2021/10/06 18:45:13;;;;;;;1.02;0.70;;;;;;;;;;7328177;19;154040;-14
2021/10/06 18:47:41;;;;;;;0.82;0.63;;;;;;;;;;7329858;19;153720;-16
2021/10/06 18:50:09;;;;;;;0.60;0.60;;;;;;;;;;7329352;19;162113;-13
2021/10/06 18:52:38;;;;;;;0.57;0.57;;;;;;;;;;7329541;19;162684;-16
2021/10/06 18:55:06;;;;;;;0.70;0.70;;;;;;;;;;7329699;19;154427;-14
2021/10/06 18:57:34;;;;;;;1.10;0.77;;;;;;;;;;7329423;19;153631;-12
2021/10/06 19:00:08;;;;;;;1.23;0.70;;;;;;;;;;7329090;19;161828;-13
2021/10/06 19:02:37;;;;;;;0.70;0.70;;;;;;;;;;7327949;19;162628;-13
2021/10/06 19:05:06;;;;;;;1.20;0.85;;;;;;;;;;7326870;19;154090;-14
2021/10/06 19:07:35;;;;;;;0.75;0.70;;;;;;;;;;7329195;19;154007;-14
2021/10/06 19:10:03;;;;;;;0.85;0.80;;;;;;;;;;7328561;19;161978;-16
2021/10/06 19:12:32;;;;;;;0.80;0.73;;;;;;;;;;7327406;19;162873;-15
2021/10/06 19:15:01;;;;;;;1.02;0.85;;;;;;;;;;7329195;19;153938;-14
2021/10/06 19:17:29;;;;;;;0.80;0.63;;;;;;;;;;7327848;19;153711;-15
2021/10/06 19:19:57;;;;;;;0.70;0.70;;;;;;;;;;7328212;19;162045;-12
2021/10/06 19:22:25;;;;;;;0.80;0.77;;;;;;;;;;7328211;19;162671;-16
2021/10/06 19:24:53;;;;;;;0.88;0.65;;;;;;;;;;7326571;19;154603;-16
2021/10/06 19:27:21;;;;;;;0.70;0.70;;;;;;;;;;7328356;19;153581;-13
2021/10/06 19:29:49;;;;;;;0.98;0.80;;;;;;;;;;7328095;19;161991;-15
2021/10/06 19:32:17;;;;;;;0.82;0.82;;;;;;;;;;7328147;19;162514;-12
2021/10/06 19:34:45;;;;;;;1.50;0.80;;;;;;;;;;7328219;19;154047;-13
2021/10/06 19:37:13;;;;;;;1.10;0.75;;;;;;;;;;7327065;19;153481;-13
2021/10/06 19:39:42;;;;;;;0.63;0.63;;;;;;;;;;7327958;19;161593;-13
2021/10/06 19:42:12;;;;;;;0.75;0.75;;;;;;;;;;7327563;19;162913;-14
2021/10/06 19:44:40;;;;;;;1.02;0.65;;;;;;;;;;7326269;19;154023;-14
2021/10/06 19:47:09;;;;;;;0.60;0.60;;;;;;;;;;7327910;19;153422;-15
2021/10/06 19:49:37;;;;;;;0.70;0.70;;;;;;;;;;7334454;19;161971;-12
2021/10/06 19:52:08;;;;;;;0.68;0.68;;;;;;;;;;7332381;19;162508;-15
2021/10/06 19:54:36;;;;;;;1.20;0.95;;;;;;;;;;7333970;19;153972;-14
2021/10/06 19:57:04;;;;;;;0.88;0.80;;;;;;;;;;7334625;19;153516;-13
2021/10/06 19:59:33;;;;;;;1.90;0.80;;;;;;;;;;7334162;19;161996;-13
2021/10/06 20:02:01;;;;;;;0.55;0.55;;;;;;;;;;7332541;19;162693;-16
2021/10/06 20:04:29;;;;;;;1.17;0.90;;;;;;;;;;7334465;19;153980;-14
2021/10/06 20:06:57;;;;;;;0.68;0.68;;;;;;;;;;7332709;19;153623;-14
2021/10/06 20:09:25;;;;;;;1.83;0.70;;;;;;;;;;7334906;19;162001;-14
2021/10/06 20:11:53;;;;;;;0.73;0.70;;;;;;;;;;7333216;19;162504;-16
2021/10/06 20:14:21;;;;;;;0.90;0.70;;;;;;;;;;7331303;19;154195;-16
2021/10/06 20:16:52;;;;;;;0.80;0.80;;;;;;;;;;7333769;19;153610;-13
2021/10/06 20:19:20;;;;;;;1.30;1.00;;;;;;;;;;7327696;19;161858;-13
2021/10/06 20:21:49;;;;;;;1.02;0.77;;;;;;;;;;7333165;19;162475;-15
2021/10/06 20:24:17;;;;;;;1.80;0.80;;;;;;;;;;7333713;19;154174;-20
2021/10/06 20:26:45;;;;;;;0.80;0.70;;;;;;;;;;7329468;19;153542;-20
2021/10/06 20:29:14;;;;;;;0.65;0.60;;;;;;;;;;7332926;19;162025;-16
2021/10/06 20:31:46;;;;;;;1.45;0.73;;;;;;;;;;7333057;19;162604;-17
2021/10/06 20:34:32;;;;;;;0.80;0.80;;;;;;;;;;7334417;19;154233;-14
2021/10/06 20:39:38;;;;;;;1.08;0.60;;;;;;;;;;7336398;19;161919;-16
2021/10/06 20:42:06;;;;;;;0.70;0.70;;;;;;;;;;7334931;19;162537;-16
2021/10/06 20:44:34;;;;;;;1.02;0.68;;;;;;;;;;7336345;19;154031;-16
2021/10/06 20:47:04;;;;;;;0.77;0.60;;;;;;;;;;7334176;19;153761;-12
2021/10/06 20:49:32;;;;;;;0.55;0.52;;;;;;;;;;7334466;19;161984;-15
2021/10/06 20:52:00;;;;;;;0.63;0.60;;;;;;;;;;7333455;19;162616;-13
2021/10/06 20:54:28;;;;;;;0.70;0.70;;;;;;;;;;7335678;19;154015;-14
2021/10/06 20:56:57;;;;;;;0.70;0.63;;;;;;;;;;7335505;19;153559;-14
2021/10/06 20:59:25;;;;;;;1.02;0.65;;;;;;;;;;7335537;19;161782;-13
2021/10/06 21:01:53;;;;;;;1.35;0.70;;;;;;;;;;7335170;19;162578;-15
2021/10/06 21:04:21;;;;;;;0.60;0.60;;;;;;;;;;7334658;19;154100;-12
2021/10/06 21:06:48;;;;;;;1.42;0.65;;;;;;;;;;7332706;19;153552;-13
2021/10/06 21:09:16;;;;;;;0.73;0.70;;;;;;;;;;7334421;19;161970;-15
2021/10/06 21:11:44;;;;;;;0.60;0.60;;;;;;;;;;7334571;19;162520;-13
2021/10/06 21:14:12;;;;;;;0.88;0.60;;;;;;;;;;7335262;19;154032;-15
2021/10/06 21:16:40;;;;;;;0.70;0.60;;;;;;;;;;7335082;19;153533;-13
2021/10/06 21:19:08;;;;;;;1.02;0.63;;;;;;;;;;7334538;19;161852;-14
2021/10/06 21:21:36;;;;;;;0.55;0.55;;;;;;;;;;7334878;19;162605;-14
2021/10/06 21:24:04;;;;;;;0.95;0.77;;;;;;;;;;7334856;19;153742;-14
2021/10/06 21:26:32;;;;;;;0.75;0.73;;;;;;;;;;7332136;19;153671;-16
2021/10/06 21:29:00;;;;;;;0.90;0.63;;;;;;;;;;7334562;19;161826;-14
2021/10/06 21:31:28;;;;;;;0.90;0.60;;;;;;;;;;7332862;19;162533;-15
2021/10/06 21:33:56;;;;;;;0.65;0.60;;;;;;;;;;7334304;19;154026;-14
2021/10/06 21:36:24;;;;;;;0.85;0.60;;;;;;;;;;7335172;19;153628;-14
2021/10/06 21:38:52;;;;;;;0.63;0.63;;;;;;;;;;7333145;19;161874;-16
2021/10/06 21:41:20;;;;;;;1.48;0.60;;;;;;;;;;7334025;19;162693;-18